• Join FlightAware (Why Join?)
  • Login
  • US Flag 
08:02AM EDT


 

Airport Tracker/Info


-or-


 

Live Flight TrackerFlight Track Log ✈ FFT693 ✈ 12-May-2013 ✈ KCID - KDEN

Flight Track Log - Related Links

Times and Time Zones

All times are in EDT time to prevent confusion due to time zone crossing. See the FFT693 flight status page for this flight to view local times or setup timezone preferences in your user account.

Time Position Orientation Groundspeed Altitude Reporting Facility
EDT Latitude Longitude Course Direction KTS MPH feet Rate Location/Type
07:26PM 41.8797 -91.8131 260° West 182 209 3,800  Level Minneapolis Center
07:27PM 41.8681 -91.9186 262° West 217 250 7,500 3,300 Climbing Minneapolis Center
07:28PM 41.8586 -92.0175 263° West 257 296 10,700 2,760 Climbing Minneapolis Center
07:29PM 41.8486 -92.1281 263° West 283 326 13,200 2,520 Climbing Minneapolis Center
07:30PM 41.8358 -92.2464 262° West 320 368 16,100 2,460 Climbing Chicago Center
07:31PM 41.8724 -91.8056 260° West  Level FlightAware Approximate
07:31PM 41.8242 -92.3689 263° West 333 383 18,500  Level Chicago Center
07:32PM 41.8081 -92.5228 262° West 349 402 21,200 2,220 Climbing Chicago Center
07:33PM 41.7964 -92.6308 262° West 355 409 22,900 1,920 Climbing Minneapolis Center
07:34PM 41.7797 -92.7972 262° West 372 428 25,100 1,800 Climbing Minneapolis Center
07:35PM 41.7650 -92.9367 262° West 387 445 26,600 1,440 Climbing Minneapolis Center
07:36PM 41.7486 -93.0886 262° West 405 466 28,100 1,380 Climbing Minneapolis Center
07:37PM 41.7322 -93.2458 262° West 422 486 29,500 1,320 Climbing Minneapolis Center
07:38PM 41.7150 -93.4058 262° West 434 499 30,900 1,560 Climbing Minneapolis Center
07:39PM 41.6922 -93.5994 261° West 441 507 32,800 1,440 Climbing Minneapolis Center
07:40PM 41.6756 -93.7633 262° West 446 513 33,900 600 Climbing Minneapolis Center
07:41PM 41.6575 -93.9256 262° West 446 513 34,100 480 Climbing Minneapolis Center
07:42PM 41.6392 -94.0878 261° West 445 512 35,000 420 Climbing Minneapolis Center
07:43PM 41.6186 -94.2486 260° West 448 516 35,000  Level Minneapolis Center
07:44PM 41.5925 -94.4439 260° West 445 512 35,000 240 Level Minneapolis Center
07:45PM 41.5742 -94.6067 261° West 443 510 35,600 780 Climbing Minneapolis Center
07:46PM 41.5556 -94.7722 262° West 448 516 36,600 1,080 Climbing Minneapolis Center
07:47PM 41.5367 -94.9350 261° West 446 513 37,900 660 Climbing Minneapolis Center
07:48PM 41.5178 -95.0875 261° West 423 487 38,000  Climbing Minneapolis Center
07:49PM 41.4983 -95.2422 261° West 422 486 38,000  Level Minneapolis Center
07:50PM 41.4781 -95.4011 260° West 432 497 38,000  Level Minneapolis Center
07:51PM 41.4611 -95.5289 260° West 436 502 38,100  Climbing Minneapolis Center
07:53PM 41.4356 -95.7250 260° West 437 503 38,000 -60 Descending Minneapolis Center
07:54PM 41.4100 -95.9156 260° West 437 503 38,000  Level Minneapolis Center
07:55PM 41.3908 -96.0742 261° West 435 501 38,000  Level Minneapolis Center
07:56PM 41.3678 -96.2322 259° West 435 501 38,000  Level Minneapolis Center
07:57PM 41.3494 -96.3711 260° West 434 499 38,000  Level Minneapolis Center
07:58PM 41.3272 -96.5303 260° West 437 503 38,000  Level Minneapolis Center
07:59PM 41.3050 -96.6903 260° West 440 506 38,000  Level Minneapolis Center
08:00PM 41.2825 -96.8494 259° West 440 506 38,000  Level Minneapolis Center
08:01PM 41.2553 -97.0403 259° West 438 504 38,000  Level Minneapolis Center
08:02PM 41.2367 -97.1683 259° West 439 505 38,000  Level Minneapolis Center
08:03PM 41.2089 -97.3581 259° West 439 505 38,000  Level Minneapolis Center
08:04PM 41.1831 -97.5389 259° West 439 505 38,000  Level Minneapolis Center
08:05PM 41.1583 -97.6969 258° West 438 504 38,000  Level Minneapolis Center
08:06PM 41.1353 -97.8569 259° West 440 506 38,000  Level Minneapolis Center
08:07PM 41.1108 -98.0156 258° West 439 505 38,000  Level Minneapolis Center
08:08PM 41.0867 -98.1750 259° West 440 506 38,000  Level Minneapolis Center
08:09PM 41.0622 -98.3347 259° West 441 507 38,000  Level Minneapolis Center
08:10PM 41.0439 -98.5017 262° West 437 503 38,000  Level Minneapolis Center
08:11PM 41.0264 -98.6594 262° West 435 501 38,000  Level Minneapolis Center
08:12PM 41.0081 -98.8178 261° West 435 501 38,000  Level Minneapolis Center
08:13PM 40.9908 -98.9761 262° West 435 501 38,000  Level Minneapolis Center
08:14PM 40.9728 -99.1372 262° West 431 496 38,000  Level Minneapolis Center
08:14PM 40.9656 -99.2006 261° West 433 498 38,000  Level Denver Center
08:15PM 40.9469 -99.3592 261° West 434 499 38,000  Level Denver Center
08:16PM 40.9283 -99.5167 261° West 434 499 38,000  Level Denver Center
08:17PM 40.9094 -99.6753 261° West 435 501 38,000  Level Denver Center
08:18PM 40.8889 -99.8464 261° West 434 499 38,000  Level Denver Center
08:20PM 40.8700 -99.9967 261° West 434 499 38,000  Level Denver Center
08:21PM 40.8483 -100.1728 261° West 435 501 38,000  Level Denver Center
08:22PM 40.8283 -100.3247 260° West 437 503 38,000  Level Denver Center
08:23PM 40.8067 -100.5014 261° West 437 503 38,000  Level Denver Center
08:24PM 40.7814 -100.6806 260° West 438 504 38,000  Level Denver Center
08:25PM 40.7508 -100.8669 258° West 444 511 38,000  Level Denver Center
08:26PM 40.7228 -101.0453 258° West 443 510 38,000  Level Denver Center
08:27PM 40.6914 -101.2244 257° West 447 514 38,000  Level Denver Center
08:28PM 40.6642 -101.3736 257° West 440 506 38,000  Level Denver Center
08:29PM 40.6344 -101.5489 257° West 440 506 38,000  Level Denver Center
08:30PM 40.6075 -101.6986 257° West 438 504 38,000  Level Denver Center
08:31PM 40.5800 -101.8475 256° West 438 504 38,000  Level Denver Center
08:32PM 40.5486 -102.0219 257° West 440 506 38,000  Level Denver Center
08:33PM 40.5206 -102.1725 256° West 443 510 38,000  Level Denver Center
08:34PM 40.4875 -102.3469 256° West 443 510 38,000  Level Denver Center
08:35PM 40.4608 -102.4975 257° West 442 509 38,000 -720 Level Denver Center
08:36PM 40.4269 -102.6725 256° West 443 510 36,600 -1,860 Descending Denver Center
08:38PM 40.3989 -102.8256 257° West 450 518 33,900 -2,880 Descending Denver Center
08:39PM 40.3594 -103.0303 256° West 455 524 30,200 -2,820 Descending Denver Center
08:40PM 40.3308 -103.1819 256° West 450 518 28,100 -2,280 Descending Denver Center
08:41PM 40.2975 -103.3511 256° West 430 495 25,600 -2,400 Descending Denver Center
08:42PM 40.2678 -103.5061 256° West 423 487 23,300 -2,040 Descending Denver Center
08:43PM 40.2403 -103.6428 255° West 409 471 21,400 -1,620 Descending Denver Center
08:44PM 40.2142 -103.7833 256° West 398 458 20,100 -1,080 Descending Denver Center
08:45PM 40.1697 -103.9175 247° West 389 448 19,300 -1,320 Descending Denver Center
08:46PM 40.1161 -104.0367 240° Southwest 380 437 17,400 -1,680 Descending Denver Center
08:47PM 40.0578 -104.1578 238° Southwest 368 423 15,900 -1,260 Descending Denver Center
08:48PM 40.0089 -104.2653 239° Southwest 346 398 14,900 -1,260 Descending Denver Center
08:49PM 39.9636 -104.3619 239° Southwest 319 367 13,300 -1,200 Descending Denver Center
08:50PM 39.9333 -104.4333 241° Southwest 293 337 12,700 -960 Descending Denver TRACON
08:51PM 39.8667 -104.5000 218° Southwest 291 335 11,600 -1,020 Descending Denver TRACON
08:52PM 39.8000 -104.5000 180° South 271 312 10,700 -1,080 Descending Denver TRACON
08:52PM 39.7747 -104.5003 180° South 275 316 10,300 -1,140 Descending Denver Center
08:53PM 39.6992 -104.5117 187° South 256 295 9,300 -1,080 Descending Denver Center
08:54PM 39.6806 -104.5828 251° West 223 257 8,100 -780 Descending Denver Center
08:55PM 39.6875 -104.6464 278° West 220 253 7,800 -600 Descending Denver Center
08:56PM 39.7517 -104.6617 350° North 193 222 6,900 -900 Descending Denver Center
08:57PM 39.7992 -104.6611 North 174 200 6,000 -780 Descending Denver Center
08:58PM 39.8331 -104.6611 360° North 148 170 5,400 -600 Descending Denver Center